Tropical Cyclones
[Index]
Main Index Home Page Stock Weather Photos Extreme Storms Discussion Storm News and Storm Chasing Reports Tropical Cyclones / Hurricanes / Typhoons Weather Data and Links Wild Fires / Bushfires Weather Observation Techniques Weather Picture Catalogue Tornado Pictures and Reports Stock Video Footage and DVDs for sale
Season 1971-1972 Tropical Cyclone EMILY Track Map
Season 1971-1972 Summaries: [BoM-AU] [JTWC-AU] [JTWC-SIO] [JTWC-SPAC] [JTWC-SH]
<<- Previous TC | JTWC 1971-1972 Season | Next TC ->>

click for intensity scale information  Lat/long Grid: Show Hide

 Date Labels: Show Hide

Joint Typhoon Warning Centre Cyclone Data

Name: EMILY
Number: 798 / 7227

28 Mar 1972 00:00 UTC to 03 Apr 1972 18:00 UTC

    date/time    lat    long     hPa   cat  kts
1972-03-28 00   11.1   157.6                  30          
1972-03-28 06   11.8   158.2                  25          
1972-03-28 12   12.1   158.6                  25          
1972-03-28 18   12.3   158.8                  20          
1972-03-29 00   12.5   159.0                  20          
1972-03-29 06   12.8   159.1                  20          
1972-03-29 12   13.0   159.2                  20          
1972-03-29 18   13.2   159.3                  25          
1972-03-30 00   13.6   159.2                  30          
1972-03-30 06   14.3   158.9                  35          
1972-03-30 12   15.1   158.6            1     40          
1972-03-30 18   15.9   158.3                  35          
1972-03-31 00   16.6   157.9                  35          
1972-03-31 06   17.5   157.0                  35          
1972-03-31 12   18.4   155.9            1     40          
1972-03-31 18   19.3   155.0            2     55          
1972-04-01 00   20.2   154.0            2     65          
1972-04-01 06   21.1   153.3            2     60          
1972-04-01 12   21.9   152.7            2     55          
1972-04-01 18   22.7   152.1            2     60          
1972-04-02 00   23.4   151.6            2     60          
1972-04-02 06   24.3   151.3            1     50          
1972-04-02 12   25.4   151.2            1     40          
1972-04-02 18   27.2   152.5            1     40          
1972-04-03 00   28.9   153.1            1     40          
1972-04-03 06   29.1   152.7                  30          
1972-04-03 12   29.7   152.3                  20          
1972-04-03 18   31.4   152.0                  15          
Winds are 1-min average.

Tropical cyclone tracks developed by Michael Bath using data from the Joint Typhoon Warning Centre Best Tracks and Google Maps.


[Australian Severe Weather index] [Copyright Notice] [Email Contacts] [Search This Site] [Privacy Policy]
Document: tropical_cyclone_emily.htm Updated: 18 September 2016